createdAt,value
2018-09-22T00:00:43.926Z,10.23
2018-09-22T00:03:13.205Z,8.40
2018-09-22T00:05:42.419Z,12.67
2018-09-22T00:08:11.738Z,9.70
2018-09-22T00:10:41.036Z,7.97
2018-09-22T00:13:10.292Z,8.73
2018-09-22T00:15:39.594Z,8.10
2018-09-22T00:18:09.106Z,9.90
2018-09-22T00:20:38.427Z,8.90
2018-09-22T00:23:07.739Z,9.30
2018-09-22T00:25:41.934Z,8.83
2018-09-22T00:28:11.186Z,11.20
2018-09-22T00:30:40.460Z,11.43
2018-09-22T00:33:09.772Z,11.23
2018-09-22T00:35:39.027Z,8.40
2018-09-22T00:38:08.308Z,6.17
2018-09-22T00:40:37.571Z,8.57
2018-09-22T00:43:07.427Z,6.60
2018-09-22T00:45:36.698Z,6.70
2018-09-22T00:48:05.968Z,5.77
2018-09-22T00:50:35.278Z,8.40
2018-09-22T00:53:04.565Z,8.07
2018-09-22T00:55:34.078Z,9.93
2018-09-22T00:58:03.407Z,7.10
2018-09-22T01:00:32.692Z,6.07
2018-09-22T01:03:01.990Z,11.03
2018-09-22T01:05:31.683Z,7.30
2018-09-22T01:08:00.976Z,10.13
2018-09-22T01:10:30.219Z,11.30
2018-09-22T01:12:59.483Z,8.90
2018-09-22T01:15:32.168Z,8.20
2018-09-22T01:18:03.452Z,8.43
2018-09-22T01:20:32.766Z,10.17
2018-09-22T01:23:02.083Z,8.13
2018-09-22T01:25:31.384Z,7.03
2018-09-22T01:28:00.639Z,10.70
2018-09-22T01:30:29.879Z,9.97
2018-09-22T01:32:59.167Z,10.20
2018-09-22T01:35:28.456Z,8.97
2018-09-22T01:37:57.747Z,10.33
2018-09-22T01:40:27.071Z,7.33
2018-09-22T01:42:58.690Z,8.07
2018-09-22T01:45:28.412Z,8.27
2018-09-22T01:47:57.651Z,13.03
2018-09-22T01:50:26.903Z,8.03
2018-09-22T01:52:56.179Z,8.93
2018-09-22T01:55:25.569Z,7.57
2018-09-22T01:57:54.791Z,8.83
2018-09-22T02:00:24.018Z,11.87
2018-09-22T02:02:53.315Z,6.97
2018-09-22T02:05:22.571Z,8.63
2018-09-22T02:07:51.915Z,7.77
2018-09-22T02:10:21.288Z,14.10
2018-09-22T02:12:50.607Z,7.83
2018-09-22T02:15:19.822Z,11.70
2018-09-22T02:17:49.119Z,9.63
2018-09-22T02:20:18.418Z,11.30
2018-09-22T02:22:47.671Z,12.17
2018-09-22T02:25:16.934Z,8.50
2018-09-22T02:27:46.212Z,8.10
2018-09-22T02:30:15.485Z,9.93
2018-09-22T02:32:44.778Z,7.73
2018-09-22T02:35:14.087Z,9.13
2018-09-22T02:37:43.388Z,8.30
2018-09-22T02:40:12.692Z,11.33
2018-09-22T02:42:41.944Z,10.30
2018-09-22T02:45:11.233Z,9.33
2018-09-22T02:47:40.580Z,8.10
2018-09-22T02:50:09.880Z,12.43
2018-09-22T02:52:39.192Z,11.03
2018-09-22T02:55:08.756Z,9.00
2018-09-22T02:57:38.104Z,8.87
2018-09-22T03:00:08.053Z,10.33
2018-09-22T03:02:37.384Z,12.77
2018-09-22T03:05:06.696Z,11.97
2018-09-22T03:07:35.970Z,14.37
2018-09-22T03:10:05.513Z,11.40
2018-09-22T03:12:34.844Z,7.13
2018-09-22T03:15:05.052Z,13.50
2018-09-22T03:17:34.286Z,11.37
2018-09-22T03:20:03.983Z,5.30
2018-09-22T03:22:33.377Z,6.20
2018-09-22T03:25:02.684Z,11.43
2018-09-22T03:27:31.972Z,10.40
2018-09-22T03:30:01.232Z,13.00
2018-09-22T03:32:30.506Z,9.37
2018-09-22T03:35:00.700Z,7.20
2018-09-22T03:37:29.957Z,17.60
2018-09-22T03:39:59.203Z,10.07
2018-09-22T03:42:28.531Z,7.20
2018-09-22T03:44:57.823Z,11.37
2018-09-22T03:47:27.143Z,9.23
2018-09-22T03:49:56.487Z,9.67
2018-09-22T03:52:25.719Z,8.53
2018-09-22T03:54:56.086Z,8.73
2018-09-22T03:57:25.424Z,6.97
2018-09-22T03:59:54.663Z,8.93
2018-09-22T04:02:23.969Z,9.17
2018-09-22T04:04:53.178Z,11.80
2018-09-22T04:07:22.516Z,9.30
2018-09-22T04:09:51.780Z,7.87
2018-09-22T04:12:21.003Z,7.13
2018-09-22T04:14:50.312Z,8.63
2018-09-22T04:17:19.567Z,6.40
2018-09-22T04:19:48.876Z,7.63
2018-09-22T04:22:18.558Z,7.27
2018-09-22T04:24:47.859Z,9.70
2018-09-22T04:27:17.109Z,12.07
2018-09-22T04:29:48.647Z,9.30
2018-09-22T04:32:17.925Z,8.70
2018-09-22T04:34:47.263Z,10.67
2018-09-22T04:37:16.820Z,10.37
2018-09-22T04:39:46.095Z,8.43
2018-09-22T04:42:15.364Z,11.70
2018-09-22T04:44:44.642Z,12.40
2018-09-22T04:47:13.943Z,9.23
2018-09-22T04:49:43.238Z,9.87
2018-09-22T04:52:12.519Z,9.97
2018-09-22T04:54:41.816Z,7.20
2018-09-22T04:57:11.096Z,13.57
2018-09-22T04:59:42.501Z,10.97
2018-09-22T05:02:11.763Z,10.47
2018-09-22T05:04:41.311Z,9.50
2018-09-22T05:07:10.570Z,9.47
2018-09-22T05:09:39.875Z,14.10
2018-09-22T05:12:09.267Z,11.03
2018-09-22T05:14:38.603Z,8.80
2018-09-22T05:17:08.201Z,9.00
2018-09-22T05:19:37.428Z,13.13
2018-09-22T05:22:06.819Z,13.27
2018-09-22T05:24:36.097Z,11.30
2018-09-22T05:27:05.330Z,9.67
2018-09-22T05:29:34.621Z,11.57
2018-09-22T05:32:03.946Z,10.33
2018-09-22T05:34:33.557Z,14.40
2018-09-22T05:37:02.934Z,13.70
2018-09-22T05:39:32.190Z,13.70
2018-09-22T05:42:01.511Z,15.70
2018-09-22T05:44:31.287Z,15.13
2018-09-22T05:47:00.510Z,14.33
2018-09-22T05:49:29.781Z,12.97
2018-09-22T05:51:59.088Z,12.67
2018-09-22T05:54:28.434Z,11.63
2018-09-22T05:56:57.689Z,19.97
2018-09-22T05:59:26.941Z,16.70
2018-09-22T06:01:56.273Z,12.80
2018-09-22T06:04:26.609Z,17.77
2018-09-22T06:06:55.896Z,13.47
2018-09-22T06:09:25.156Z,14.00
2018-09-22T06:11:54.479Z,14.93
2018-09-22T06:14:23.903Z,16.23
2018-09-22T06:16:53.231Z,13.77
2018-09-22T06:19:22.511Z,11.63
2018-09-22T06:21:51.823Z,19.37
2018-09-22T06:24:21.075Z,15.23
2018-09-22T06:26:50.351Z,13.80
2018-09-22T06:29:19.619Z,12.30
2018-09-22T06:31:48.897Z,10.50
2018-09-22T06:34:18.354Z,10.60
2018-09-22T06:36:48.607Z,9.03
2018-09-22T06:39:17.842Z,10.90
2018-09-22T06:41:48.353Z,13.77
2018-09-22T06:44:17.563Z,11.37
2018-09-22T06:46:46.830Z,12.30
2018-09-22T06:49:16.071Z,9.93
2018-09-22T06:51:45.323Z,13.83
2018-09-22T06:54:14.745Z,10.20
2018-09-22T06:56:43.976Z,12.47
2018-09-22T06:59:13.305Z,9.97
2018-09-22T07:01:42.633Z,12.73
2018-09-22T07:04:13.012Z,10.70
2018-09-22T07:06:42.256Z,20.37
2018-09-22T07:09:11.522Z,12.23
2018-09-22T07:11:40.827Z,10.63
2018-09-22T07:14:10.153Z,11.77
2018-09-22T07:16:41.458Z,10.43
2018-09-22T07:19:10.862Z,9.10
2018-09-22T07:21:45.666Z,10.33
2018-09-22T07:24:14.934Z,10.07
2018-09-22T07:26:44.179Z,10.80
2018-09-22T07:29:13.523Z,11.30
2018-09-22T07:31:42.833Z,10.40
2018-09-22T07:34:12.150Z,13.90
2018-09-22T07:36:41.455Z,13.20
2018-09-22T07:39:12.380Z,13.27
2018-09-22T07:41:41.775Z,11.67
2018-09-22T07:44:11.203Z,10.77
2018-09-22T07:46:40.519Z,9.30
2018-09-22T07:49:09.862Z,12.53
2018-09-22T07:51:39.155Z,11.17
2018-09-22T07:54:08.431Z,11.33
2018-09-22T07:56:37.751Z,8.70
2018-09-22T07:59:07.572Z,11.47
2018-09-22T08:01:36.973Z,15.60
2018-09-22T08:04:06.484Z,12.77
2018-09-22T08:06:35.791Z,11.70
2018-09-22T08:09:07.087Z,10.50
2018-09-22T08:11:36.437Z,13.47
2018-09-22T08:14:12.335Z,14.77
2018-09-22T08:16:41.723Z,14.93
2018-09-22T08:19:15.219Z,13.43
2018-09-22T08:21:45.440Z,13.27
2018-09-22T08:24:14.892Z,11.67
2018-09-22T08:26:44.939Z,15.43
2018-09-22T08:29:14.347Z,13.00
2018-09-22T08:31:43.682Z,11.80
2018-09-22T08:34:13.044Z,19.67
2018-09-22T08:36:43.164Z,11.87
2018-09-22T08:39:12.879Z,10.43
2018-09-22T08:41:42.863Z,11.87
2018-09-22T08:44:12.466Z,13.20
2018-09-22T08:46:42.919Z,8.93
2018-09-22T08:49:14.254Z,12.63
2018-09-22T08:51:43.794Z,11.33
2018-09-22T08:54:13.137Z,12.90
2018-09-22T08:56:42.388Z,11.77
2018-09-22T08:59:11.815Z,8.47
2018-09-22T09:01:41.194Z,10.13
2018-09-22T09:04:11.072Z,8.90
2018-09-22T09:06:40.463Z,9.27
2018-09-22T09:09:11.266Z,9.63
2018-09-22T09:11:40.651Z,16.57
2018-09-22T09:14:10.166Z,15.17
2018-09-22T09:16:39.485Z,14.47
2018-09-22T09:19:09.197Z,11.73
2018-09-22T09:21:39.731Z,12.50
2018-09-22T09:24:09.267Z,13.53
2018-09-22T09:26:38.629Z,8.10
2018-09-22T09:29:08.314Z,8.27
2018-09-22T09:31:37.695Z,11.57
2018-09-22T09:34:09.288Z,12.33
2018-09-22T09:36:38.600Z,12.47
2018-09-22T09:39:07.911Z,14.67
2018-09-22T09:41:37.291Z,11.70
2018-09-22T09:44:07.908Z,10.30
2018-09-22T09:46:38.299Z,10.23
2018-09-22T09:49:07.645Z,13.70
2018-09-22T09:51:36.958Z,8.47
2018-09-22T09:54:06.230Z,10.27
2018-09-22T09:56:35.521Z,9.70
2018-09-22T09:59:05.004Z,12.97
2018-09-22T10:01:34.782Z,11.83
2018-09-22T10:04:04.139Z,7.90
2018-09-22T10:06:34.623Z,13.33
2018-09-22T10:09:05.599Z,7.53
2018-09-22T10:11:35.224Z,10.30
2018-09-22T10:14:04.615Z,13.77
2018-09-22T10:16:33.983Z,8.33
2018-09-22T10:19:03.239Z,9.03
2018-09-22T10:21:32.695Z,8.93
2018-09-22T10:24:02.024Z,10.37
2018-09-22T10:26:31.167Z,9.73
2018-09-22T10:29:00.561Z,9.87
2018-09-22T10:31:29.839Z,10.20
2018-09-22T10:33:59.089Z,7.70
2018-09-22T10:36:28.370Z,9.10
2018-09-22T10:38:57.639Z,6.67
2018-09-22T10:41:26.999Z,11.10
2018-09-22T10:43:56.240Z,13.90
2018-09-22T10:46:25.493Z,9.87
2018-09-22T10:48:54.807Z,12.30
2018-09-22T10:51:24.047Z,10.30
2018-09-22T10:53:53.445Z,11.20
2018-09-22T10:56:22.656Z,5.87
2018-09-22T10:58:51.970Z,8.83
2018-09-22T11:01:21.263Z,7.47
2018-09-22T11:03:50.527Z,8.93
2018-09-22T11:06:19.779Z,10.83
2018-09-22T11:08:49.007Z,8.33
2018-09-22T11:11:18.254Z,7.47
2018-09-22T11:13:47.575Z,7.57
2018-09-22T11:16:16.831Z,9.43
2018-09-22T11:18:47.375Z,9.43
2018-09-22T11:21:16.704Z,9.37
2018-09-22T11:23:45.954Z,8.63
2018-09-22T11:26:15.192Z,9.80
2018-09-22T11:28:44.434Z,7.10
2018-09-22T11:31:13.655Z,7.30
2018-09-22T11:33:42.918Z,10.73
2018-09-22T11:36:12.203Z,8.77
2018-09-22T11:38:41.483Z,8.47
2018-09-22T11:41:10.786Z,6.60
2018-09-22T11:43:40.095Z,10.73
2018-09-22T11:46:09.420Z,9.23
2018-09-22T11:48:38.751Z,10.03
2018-09-22T11:51:08.020Z,12.10
2018-09-22T11:53:37.299Z,7.20
2018-09-22T11:56:06.570Z,6.80
2018-09-22T11:58:35.767Z,8.37
2018-09-22T12:01:05.054Z,10.57
2018-09-22T12:03:34.356Z,8.50
2018-09-22T12:06:03.620Z,6.73
2018-09-22T12:08:32.867Z,6.57
2018-09-22T12:11:02.153Z,11.17
2018-09-22T12:13:31.331Z,5.17
2018-09-22T12:16:00.731Z,6.03
2018-09-22T12:18:30.043Z,9.03
2018-09-22T12:20:59.303Z,8.87
2018-09-22T12:23:28.671Z,6.87
2018-09-22T12:25:58.290Z,6.03
2018-09-22T12:28:27.538Z,5.30
2018-09-22T12:30:56.789Z,8.03
2018-09-22T12:33:26.096Z,5.93
2018-09-22T12:35:55.440Z,8.77
2018-09-22T12:38:24.946Z,7.47
2018-09-22T12:40:54.246Z,10.73
2018-09-22T12:43:23.428Z,5.80
2018-09-22T12:45:52.827Z,7.13
2018-09-22T12:48:22.088Z,9.43
2018-09-22T12:50:51.417Z,7.77
2018-09-22T12:53:20.629Z,9.47
2018-09-22T12:55:49.865Z,7.27
2018-09-22T12:58:19.100Z,6.83
2018-09-22T13:00:48.347Z,7.57
2018-09-22T13:03:17.987Z,6.10
2018-09-22T13:05:47.403Z,5.37
2018-09-22T13:08:16.638Z,7.20
2018-09-22T13:10:46.485Z,6.57
2018-09-22T13:13:16.271Z,5.43
2018-09-22T13:15:45.688Z,7.53
2018-09-22T13:18:14.926Z,10.10
2018-09-22T13:20:44.259Z,8.00
2018-09-22T13:23:13.544Z,9.20
2018-09-22T13:25:42.992Z,7.23
2018-09-22T13:28:12.355Z,11.60
2018-09-22T13:30:41.612Z,5.70
2018-09-22T13:33:11.243Z,2.30
2018-09-22T13:35:40.683Z,2.40
2018-09-22T13:38:09.943Z,4.60
2018-09-22T13:40:39.212Z,1.93
2018-09-22T13:43:09.061Z,1.53
2018-09-22T13:45:38.337Z,0.40
2018-09-22T13:48:07.416Z,4.17
2018-09-22T13:50:36.863Z,2.20
2018-09-22T13:53:06.358Z,3.57
2018-09-22T13:55:48.115Z,2.63
2018-09-22T13:58:17.474Z,1.77
2018-09-22T14:00:53.643Z,2.43
2018-09-22T14:03:23.007Z,5.77
2018-09-22T14:05:52.756Z,3.80
2018-09-22T14:08:22.870Z,2.20
2018-09-22T14:10:52.202Z,3.47
2018-09-22T14:13:21.513Z,2.60
2018-09-22T14:15:50.965Z,3.97
2018-09-22T14:18:20.315Z,4.47
2018-09-22T14:20:49.707Z,2.63
2018-09-22T14:23:19.023Z,2.53
2018-09-22T14:25:48.532Z,3.80
2018-09-22T14:28:18.181Z,3.20
2018-09-22T14:30:47.463Z,2.27
2018-09-22T14:33:16.739Z,2.93
2018-09-22T14:35:46.050Z,4.37
2018-09-22T14:38:15.333Z,2.70
2018-09-22T14:40:45.170Z,2.57
2018-09-22T14:43:15.540Z,1.93
2018-09-22T14:45:45.056Z,2.50
2018-09-22T14:48:14.389Z,3.17
2018-09-22T14:50:43.891Z,5.67
2018-09-22T14:53:13.159Z,1.73
2018-09-22T14:55:42.516Z,2.77
2018-09-22T14:58:11.870Z,3.57
2018-09-22T15:00:41.271Z,3.00
2018-09-22T15:03:10.527Z,2.37
2018-09-22T15:05:39.887Z,2.90
2018-09-22T15:08:09.349Z,2.43
2018-09-22T15:10:38.779Z,2.87
2018-09-22T15:13:08.211Z,4.93
2018-09-22T15:15:37.518Z,7.17
2018-09-22T15:18:06.763Z,6.63
2018-09-22T15:20:36.112Z,4.93
2018-09-22T15:23:05.318Z,3.43
2018-09-22T15:25:34.644Z,3.83
2018-09-22T15:28:04.000Z,2.93
2018-09-22T15:30:33.369Z,2.73
2018-09-22T15:33:02.890Z,2.43
2018-09-22T15:35:32.476Z,1.73
2018-09-22T15:38:01.831Z,3.13
2018-09-22T15:40:31.234Z,1.23
2018-09-22T15:43:00.603Z,2.70
2018-09-22T15:45:29.997Z,2.33
2018-09-22T15:47:59.311Z,3.60
2018-09-22T15:50:28.579Z,2.37
2018-09-22T15:52:57.850Z,5.27
2018-09-22T15:55:27.160Z,2.20
2018-09-22T15:57:56.892Z,2.80
2018-09-22T16:00:26.230Z,1.93
2018-09-22T16:02:55.535Z,3.10
2018-09-22T16:05:25.780Z,3.70
2018-09-22T16:07:55.175Z,3.13
2018-09-22T16:10:24.636Z,3.23
2018-09-22T16:12:54.120Z,2.60
2018-09-22T16:15:23.533Z,2.70
2018-09-22T16:17:52.792Z,0.90
2018-09-22T16:20:22.618Z,3.07
2018-09-22T16:22:52.116Z,3.30
2018-09-22T16:25:21.350Z,4.37
2018-09-22T16:27:56.911Z,2.80
2018-09-22T16:30:26.743Z,3.63
2018-09-22T16:32:56.620Z,3.13
2018-09-22T16:35:26.900Z,2.60
2018-09-22T16:37:57.514Z,3.33
2018-09-22T16:40:27.571Z,1.80
2018-09-22T16:42:58.010Z,2.83
2018-09-22T16:45:28.564Z,3.53
2018-09-22T16:47:58.742Z,3.80
2018-09-22T16:50:30.505Z,2.03
2018-09-22T16:53:02.600Z,1.60
2018-09-22T16:55:31.999Z,2.83
2018-09-22T16:58:01.279Z,3.73
2018-09-22T17:00:31.895Z,2.43
2018-09-22T17:03:01.263Z,1.63
2018-09-22T17:05:32.592Z,3.10
2018-09-22T17:08:01.840Z,2.10
2018-09-22T17:10:31.223Z,3.10
2018-09-22T17:13:00.779Z,2.77
2018-09-22T17:15:30.133Z,1.63
2018-09-22T17:17:59.487Z,1.93
2018-09-22T17:20:29.831Z,3.27
2018-09-22T17:22:59.239Z,3.17
2018-09-22T17:25:29.012Z,2.27
2018-09-22T17:27:58.263Z,2.83
2018-09-22T17:30:28.090Z,4.53
2018-09-22T17:32:57.547Z,2.90
2018-09-22T17:35:27.021Z,2.60
2018-09-22T17:37:56.566Z,4.27
2018-09-22T17:40:26.011Z,3.40
2018-09-22T17:42:55.318Z,4.47
2018-09-22T17:45:24.740Z,2.30
2018-09-22T17:47:54.251Z,3.33
2018-09-22T17:50:23.531Z,2.07
2018-09-22T17:52:53.099Z,2.23
2018-09-22T17:55:22.420Z,3.90
2018-09-22T17:57:51.666Z,4.37
2018-09-22T18:00:21.120Z,5.50
2018-09-22T18:02:50.387Z,3.00
2018-09-22T18:05:19.700Z,4.87
2018-09-22T18:07:48.972Z,4.67
2018-09-22T18:10:18.272Z,4.13
2018-09-22T18:12:47.668Z,3.60
2018-09-22T18:15:17.042Z,4.43
2018-09-22T18:17:46.332Z,2.43
2018-09-22T18:20:15.807Z,3.53
2018-09-22T18:22:45.096Z,5.37
2018-09-22T18:25:14.645Z,5.67
2018-09-22T18:27:43.916Z,3.43
2018-09-22T18:30:26.362Z,4.87
2018-09-22T18:32:55.822Z,3.03
2018-09-22T18:35:25.128Z,6.30
2018-09-22T18:37:54.388Z,6.43
2018-09-22T18:40:26.251Z,6.13
2018-09-22T18:42:55.547Z,7.77
2018-09-22T18:45:24.872Z,5.73
2018-09-22T18:47:54.120Z,6.73
2018-09-22T18:50:23.467Z,8.10
2018-09-22T18:52:52.764Z,5.83
2018-09-22T18:55:22.415Z,7.17
2018-09-22T18:57:51.801Z,4.83
2018-09-22T19:00:21.103Z,5.53
2018-09-22T19:02:50.391Z,6.73
2018-09-22T19:05:19.716Z,7.27
2018-09-22T19:07:49.255Z,7.77
2018-09-22T19:10:18.705Z,7.53
2018-09-22T19:12:48.119Z,6.70
2018-09-22T19:15:47.728Z,6.33
2018-09-22T19:18:25.087Z,6.90
2018-09-22T19:20:58.647Z,5.50
2018-09-22T19:23:32.534Z,6.03
2018-09-22T19:26:08.796Z,7.47
2018-09-22T19:28:41.856Z,7.83
2018-09-22T19:31:14.805Z,8.00
2018-09-22T19:33:47.164Z,7.80
2018-09-22T19:36:28.351Z,8.43
2018-09-22T19:39:05.648Z,10.97
2018-09-22T19:41:45.020Z,7.67
2018-09-22T19:44:19.620Z,6.43
2018-09-22T19:46:52.979Z,8.67
2018-09-22T19:49:31.376Z,9.10
2018-09-22T19:52:05.124Z,6.90
2018-09-22T19:54:35.604Z,7.17
2018-09-22T19:57:04.943Z,7.80
2018-09-22T19:59:35.304Z,8.43
2018-09-22T20:02:04.642Z,10.60
2018-09-22T20:04:34.063Z,7.57
2018-09-22T20:07:03.421Z,8.30
2018-09-22T20:09:32.968Z,8.80
2018-09-22T20:12:02.276Z,8.33
2018-09-22T20:14:31.891Z,8.97
2018-09-22T20:17:01.211Z,9.83
2018-09-22T20:19:30.467Z,8.30
2018-09-22T20:21:59.800Z,8.17
2018-09-22T20:24:31.295Z,9.13
2018-09-22T20:27:00.550Z,10.10
2018-09-22T20:29:29.879Z,8.83
2018-09-22T20:31:59.161Z,8.97
2018-09-22T20:34:28.419Z,10.80
2018-09-22T20:36:57.771Z,8.40
2018-09-22T20:39:27.032Z,9.30
2018-09-22T20:41:58.317Z,11.70
2018-09-22T20:44:27.632Z,12.23
2018-09-22T20:46:56.854Z,11.13
2018-09-22T20:49:31.016Z,12.70
2018-09-22T20:52:00.556Z,9.43
2018-09-22T20:54:29.814Z,10.33
2018-09-22T20:56:59.111Z,10.10
2018-09-22T20:59:28.507Z,12.13
2018-09-22T21:01:59.823Z,11.23
2018-09-22T21:04:29.116Z,11.63
2018-09-22T21:06:58.591Z,11.20
2018-09-22T21:09:27.943Z,11.20
2018-09-22T21:11:57.342Z,13.10
2018-09-22T21:14:26.623Z,11.93
2018-09-22T21:16:55.867Z,12.90
2018-09-22T21:19:25.156Z,11.33
2018-09-22T21:21:54.448Z,10.70
2018-09-22T21:24:23.744Z,13.70
2018-09-22T21:26:52.984Z,10.50
2018-09-22T21:29:22.397Z,12.83
2018-09-22T21:31:51.675Z,10.53
2018-09-22T21:34:21.507Z,12.57
2018-09-22T21:36:50.768Z,14.27
2018-09-22T21:39:20.140Z,12.37
2018-09-22T21:41:49.579Z,13.03
2018-09-22T21:44:18.929Z,14.37
2018-09-22T21:46:48.174Z,12.47
2018-09-22T21:49:17.796Z,11.47
2018-09-22T21:51:47.215Z,10.67
2018-09-22T21:54:16.684Z,15.53
2018-09-22T21:56:45.991Z,17.30
2018-09-22T21:59:15.287Z,14.63
2018-09-22T22:01:44.597Z,12.97
2018-09-22T22:04:13.978Z,14.63
2018-09-22T22:06:43.513Z,14.43
2018-09-22T22:09:14.099Z,21.17
2018-09-22T22:11:43.539Z,16.23
2018-09-22T22:14:13.934Z,12.70
2018-09-22T22:16:43.367Z,13.77
2018-09-22T22:19:12.665Z,13.77
2018-09-22T22:21:42.279Z,13.97
2018-09-22T22:24:14.019Z,15.20
2018-09-22T22:26:43.438Z,20.23
2018-09-22T22:29:12.822Z,15.67
2018-09-22T22:31:42.424Z,19.03
2018-09-22T22:34:11.662Z,16.50
2018-09-22T22:36:43.051Z,17.90
2018-09-22T22:39:12.349Z,17.43
2018-09-22T22:41:41.699Z,18.67
2018-09-22T22:44:11.156Z,16.23
2018-09-22T22:46:40.378Z,14.07
2018-09-22T22:49:09.762Z,13.53
2018-09-22T22:51:39.155Z,17.63
2018-09-22T22:54:08.616Z,14.33
2018-09-22T22:56:37.931Z,15.37
2018-09-22T22:59:07.262Z,16.37
2018-09-22T23:01:36.665Z,16.00
2018-09-22T23:04:06.133Z,16.77
2018-09-22T23:06:35.382Z,18.70
2018-09-22T23:09:05.948Z,19.40
2018-09-22T23:11:35.248Z,16.40
2018-09-22T23:14:04.611Z,20.03
2018-09-22T23:16:34.094Z,20.63
2018-09-22T23:19:03.534Z,18.07
2018-09-22T23:21:32.827Z,14.70
2018-09-22T23:24:02.101Z,18.17
2018-09-22T23:26:31.394Z,17.67
2018-09-22T23:29:00.688Z,17.03
2018-09-22T23:31:29.980Z,18.37
2018-09-22T23:33:59.289Z,17.27
2018-09-22T23:36:28.532Z,18.37
2018-09-22T23:38:57.851Z,19.07
2018-09-22T23:41:27.182Z,17.87
2018-09-22T23:43:56.659Z,15.97
2018-09-22T23:46:26.059Z,17.10
2018-09-22T23:48:55.340Z,18.43
2018-09-22T23:51:24.639Z,18.57
2018-09-22T23:53:53.929Z,15.87
2018-09-22T23:56:23.233Z,16.77
2018-09-22T23:58:52.468Z,19.00
